Time;durP1;ratioP1;P1;durP2;ratioP2;P2;SDS_P1;SDS_P2;PMS_P1;PMS_P2;Temp;Humidity;BMP_temperature;BMP_pressure;BME280_temperature;BME280_humidity;BME280_pressure;Samples;Min_cycle;Max_cycle;Signal;HPM_P1;HPM_P2
2021/06/23 00:00:36;;;;;;;;;;;;;;;23.08;59.98;99845.09;2066719;28;20370;-65
2021/06/23 00:01:36;;;;;;;;;;;;;;;23.08;59.92;99834.09;2076312;28;19916;-65
2021/06/23 00:02:37;;;;;;;;;;;;;;;23.08;59.97;99834.09;2076698;28;20371;-65
2021/06/23 00:03:37;;;;;;;;;;;;;;;23.08;59.95;99836.84;2077549;28;20183;-65
2021/06/23 00:04:37;;;;;;;;;;;;;;;23.08;59.90;99836.84;2075270;28;19908;-65
2021/06/23 00:05:38;;;;;;;;;;;;;;;23.07;59.95;99832.38;2070651;28;20334;-65
2021/06/23 00:06:38;;;;;;;;;;;;;;;23.09;59.90;99834.94;2068243;28;19920;-65
2021/06/23 00:07:38;;;;;;;;;;;;;;;23.08;59.88;99834.09;2059460;28;19945;-65
2021/06/23 00:08:39;;;;;;;;;;;;;;;23.08;59.87;99828.59;2052878;28;20562;-65
2021/06/23 00:09:39;;;;;;;;;;;;;;;23.08;60.02;99831.34;2064558;28;19913;-65
2021/06/23 00:10:39;;;;;;;;;;;;;;;23.09;59.96;99830.28;2069783;28;19921;-65
2021/06/23 00:11:45;;;;;;;;;;;;;;;23.08;59.82;99831.34;2068070;28;19954;-65
2021/06/23 00:12:47;;;;;;;;;;;;;;;23.09;59.92;99832.19;2067235;28;20446;-65
2021/06/23 00:13:49;;;;;;;;;;;;;;;23.10;59.87;99836.63;2069182;28;19913;-65
2021/06/23 00:14:49;;;;;;;;;;;;;;;23.09;59.89;99824.78;2067840;28;20462;-65
2021/06/23 00:15:49;;;;;;;;;;;;;;;23.09;59.83;99830.28;2073734;28;20454;-65
2021/06/23 00:16:50;;;;;;;;;;;;;;;23.08;59.90;99828.59;2069939;28;20067;-65
2021/06/23 00:17:50;;;;;;;;;;;;;;;23.09;59.95;99829.44;2067890;28;19917;-65
2021/06/23 00:18:50;;;;;;;;;;;;;;;23.10;59.81;99831.13;2070867;28;19923;-65
2021/06/23 00:19:51;;;;;;;;;;;;;;;23.08;59.82;99827.75;2070081;28;19921;-65
2021/06/23 00:20:51;;;;;;;;;;;;;;;23.08;59.83;99823.09;2065420;28;19913;-65
2021/06/23 00:21:51;;;;;;;;;;;;;;;23.08;59.82;99825.84;2069486;28;19999;-65
2021/06/23 00:22:52;;;;;;;;;;;;;;;23.06;59.82;99822.41;2074065;28;20583;-65
2021/06/23 00:23:52;;;;;;;;;;;;;;;23.07;59.98;99821.38;2068333;28;20375;-65
2021/06/23 00:24:52;;;;;;;;;;;;;;;23.07;59.85;99824.13;2069139;28;20269;-65
2021/06/23 00:26:14;;;;;;;;;;;;;;;23.07;59.91;99821.38;2068189;28;19910;-65
2021/06/23 00:27:15;;;;;;;;;;;;;;;23.08;59.92;99827.75;2067505;28;19913;-65
2021/06/23 00:28:15;;;;;;;;;;;;;;;23.07;59.88;99823.28;2070094;28;19924;-65
2021/06/23 00:29:16;;;;;;;;;;;;;;;23.07;59.89;99815.88;2067098;28;20589;-65
2021/06/23 00:30:17;;;;;;;;;;;;;;;23.07;59.91;99818.63;2069794;28;19963;-65
2021/06/23 00:31:18;;;;;;;;;;;;;;;23.08;59.95;99816.75;2065953;28;20689;-65
2021/06/23 00:32:19;;;;;;;;;;;;;;;23.07;59.89;99815.88;2068018;28;19913;-65
2021/06/23 00:33:20;;;;;;;;;;;;;;;23.06;59.87;99814.16;2072538;28;19909;-65
2021/06/23 00:34:22;;;;;;;;;;;;;;;23.07;59.83;99821.38;2069895;28;20329;-65
2021/06/23 00:35:22;;;;;;;;;;;;;;;23.07;59.96;99810.38;2071452;28;19920;-65
2021/06/23 00:36:23;;;;;;;;;;;;;;;23.07;59.90;99815.03;2069184;28;19955;-65
2021/06/23 00:37:23;;;;;;;;;;;;;;;23.07;59.92;99813.13;2063027;28;20000;-65
2021/06/23 00:38:24;;;;;;;;;;;;;;;23.07;59.90;99807.63;2068135;28;20324;-65
2021/06/23 00:39:24;;;;;;;;;;;;;;;23.07;59.98;99815.03;2060255;28;20280;-65
2021/06/23 00:40:24;;;;;;;;;;;;;;;23.06;59.82;99811.41;2067374;28;20358;-65
2021/06/23 00:41:25;;;;;;;;;;;;;;;23.07;59.97;99815.03;2064775;28;19909;-65
2021/06/23 00:42:25;;;;;;;;;;;;;;;23.06;59.79;99814.16;2068476;28;20046;-65
2021/06/23 00:43:25;;;;;;;;;;;;;;;23.07;59.88;99812.28;2070003;28;19979;-65
2021/06/23 00:44:27;;;;;;;;;;;;;;;23.06;59.91;99805.06;2068388;28;20055;-65
2021/06/23 00:45:29;;;;;;;;;;;;;;;23.05;59.90;99801.47;2068568;28;20399;-65
2021/06/23 00:46:29;;;;;;;;;;;;;;;23.06;59.97;99805.94;2066443;28;19920;-65
2021/06/23 00:47:30;;;;;;;;;;;;;;;23.06;59.99;99805.06;2063112;28;20008;-65
2021/06/23 00:48:30;;;;;;;;;;;;;;;23.06;60.04;99800.44;2072859;28;19912;-65
2021/06/23 00:49:32;;;;;;;;;;;;;;;23.07;59.86;99804.03;2069512;28;20424;-65
2021/06/23 00:50:33;;;;;;;;;;;;;;;23.07;59.82;99798.53;2068030;28;20710;-65
2021/06/23 00:51:34;;;;;;;;;;;;;;;23.06;59.97;99803.19;2062941;28;19913;-65
2021/06/23 00:52:35;;;;;;;;;;;;;;;23.06;59.79;99803.19;2071498;28;19919;-65
2021/06/23 00:53:35;;;;;;;;;;;;;;;23.07;59.91;99798.53;2069779;28;20118;-65
2021/06/23 00:54:35;;;;;;;;;;;;;;;23.06;59.89;99799.56;2060624;28;19956;-65
2021/06/23 00:55:36;;;;;;;;;;;;;;;23.07;59.93;99804.03;2066312;28;19906;-65
2021/06/23 00:56:37;;;;;;;;;;;;;;;23.06;59.92;99797.69;2061660;28;19997;-65
2021/06/23 00:57:38;;;;;;;;;;;;;;;23.07;59.95;99804.88;2064498;28;19913;-65
2021/06/23 00:58:39;;;;;;;;;;;;;;;23.07;59.85;99798.53;2064935;28;19944;-65
2021/06/23 00:59:39;;;;;;;;;;;;;;;23.07;59.83;99804.88;2068773;28;20073;-65
2021/06/23 01:00:39;;;;;;;;;;;;;;;23.06;59.82;99805.94;2069019;28;19913;-64
2021/06/23 01:01:40;;;;;;;;;;;;;;;23.06;60.05;99803.19;2076657;28;20267;-65
2021/06/23 01:02:41;;;;;;;;;;;;;;;23.05;59.81;99801.47;2073085;28;19921;-65
2021/06/23 01:03:41;;;;;;;;;;;;;;;23.06;59.94;99800.44;2069485;28;19913;-65
2021/06/23 01:04:42;;;;;;;;;;;;;;;23.07;59.99;99804.88;2064536;28;20682;-65
2021/06/23 01:05:42;;;;;;;;;;;;;;;23.05;59.89;99801.47;2064941;28;19910;-65
2021/06/23 01:06:42;;;;;;;;;;;;;;;23.06;59.98;99803.19;2070874;28;20499;-65
2021/06/23 01:07:43;;;;;;;;;;;;;;;23.05;59.87;99801.47;2068883;28;19924;-65
2021/06/23 01:08:44;;;;;;;;;;;;;;;23.05;59.92;99812.47;2071532;28;19928;-65
2021/06/23 01:09:44;;;;;;;;;;;;;;;23.05;59.93;99798.72;2069280;28;20679;-65
2021/06/23 01:10:45;;;;;;;;;;;;;;;23.04;59.98;99805.25;2070506;28;19956;-65
2021/06/23 01:12:05;;;;;;;;;;;;;;;23.04;59.94;99798.91;2071012;28;19909;-65
2021/06/23 01:13:24;;;;;;;;;;;;;;;23.03;59.92;99803.56;2037815;28;19915;-65
2021/06/23 01:14:24;;;;;;;;;;;;;;;23.04;59.85;99794.25;2070157;28;19912;-65
2021/06/23 01:15:26;;;;;;;;;;;;;;;23.03;59.95;99798.06;2071071;28;19944;-65
2021/06/23 01:16:28;;;;;;;;;;;;;;;23.04;59.98;99794.25;2071296;28;19909;-65
2021/06/23 01:17:31;;;;;;;;;;;;;;;23.04;59.83;99794.25;2072570;28;19966;-65
2021/06/23 01:18:35;;;;;;;;;;;;;;;23.04;60.16;99802.50;2076490;28;20259;-64
2021/06/23 01:19:43;;;;;;;;;;;;;;;23.05;60.07;99800.59;2068539;28;19991;-65
2021/06/23 01:20:44;;;;;;;;;;;;;;;23.04;59.99;99802.50;2062832;28;19909;-65
2021/06/23 01:21:44;;;;;;;;;;;;;;;23.05;59.99;99803.34;2074308;28;19920;-65
2021/06/23 01:22:46;;;;;;;;;;;;;;;23.03;59.89;99798.06;2066620;28;19987;-65
2021/06/23 01:23:46;;;;;;;;;;;;;;;23.05;60.06;99806.09;2078094;28;19913;-65
2021/06/23 01:24:47;;;;;;;;;;;;;;;23.05;60.04;99806.09;2074503;28;20011;-65
2021/06/23 01:25:48;;;;;;;;;;;;;;;23.04;59.92;99810.75;2075199;28;19913;-65
2021/06/23 01:26:48;;;;;;;;;;;;;;;23.04;59.95;99799.75;2073175;28;19913;-65
2021/06/23 01:27:49;;;;;;;;;;;;;;;23.05;60.06;99795.09;2071341;28;19967;-65
2021/06/23 01:28:49;;;;;;;;;;;;;;;23.03;59.89;99803.56;2061139;28;19913;-65
2021/06/23 01:29:49;;;;;;;;;;;;;;;23.04;60.08;99802.50;2061673;28;19917;-65
2021/06/23 01:30:50;;;;;;;;;;;;;;;23.03;59.99;99799.94;2071131;28;19917;-65
2021/06/23 01:31:50;;;;;;;;;;;;;;;23.02;59.94;99801.81;2073025;28;19967;-65
2021/06/23 01:32:50;;;;;;;;;;;;;;;23.03;60.00;99798.06;2071298;28;19912;-65
2021/06/23 01:33:51;;;;;;;;;;;;;;;23.03;59.94;99803.56;2070876;28;19955;-65
2021/06/23 01:34:51;;;;;;;;;;;;;;;23.02;60.04;99801.81;2066578;28;19921;-65
2021/06/23 01:35:52;;;;;;;;;;;;;;;23.02;60.11;99801.81;2070924;28;20373;-65
2021/06/23 01:36:53;;;;;;;;;;;;;;;23.02;59.97;99803.72;2071461;28;20003;-65
2021/06/23 01:37:53;;;;;;;;;;;;;;;23.02;60.01;99801.81;2068211;28;19971;-65
2021/06/23 01:38:53;;;;;;;;;;;;;;;23.02;59.93;99799.06;2067682;28;20741;-65
2021/06/23 01:39:54;;;;;;;;;;;;;;;23.02;60.03;99799.06;2066538;28;19948;-65
2021/06/23 01:40:54;;;;;;;;;;;;;;;23.02;59.94;99796.31;2070808;28;19916;-65
2021/06/23 01:41:54;;;;;;;;;;;;;;;23.01;60.13;99800.13;2063274;28;20219;-65
2021/06/23 01:42:55;;;;;;;;;;;;;;;23.02;60.11;99803.72;2068920;28;20419;-65
2021/06/23 01:43:55;;;;;;;;;;;;;;;23.02;60.15;99800.97;2069952;28;20676;-65
2021/06/23 01:44:57;;;;;;;;;;;;;;;23.02;60.03;99800.97;2065019;28;19925;-65
2021/06/23 01:45:58;;;;;;;;;;;;;;;23.03;59.89;99802.69;2063402;28;20012;-65
2021/06/23 01:47:01;;;;;;;;;;;;;;;23.02;60.00;99799.06;2062533;28;19913;-65
2021/06/23 01:48:01;;;;;;;;;;;;;;;23.02;60.10;99806.47;2067083;28;19909;-65
2021/06/23 01:49:01;;;;;;;;;;;;;;;23.02;59.98;99806.47;2064285;28;19905;-65
2021/06/23 01:50:02;;;;;;;;;;;;;;;23.02;59.97;99812.81;2071377;28;19959;-65
2021/06/23 01:51:03;;;;;;;;;;;;;;;23.03;60.03;99809.06;2072515;28;19917;-65
2021/06/23 01:52:04;;;;;;;;;;;;;;;23.02;60.03;99807.31;2065738;28;19902;-65
2021/06/23 01:53:04;;;;;;;;;;;;;;;23.03;60.05;99806.31;2067324;28;20356;-65
2021/06/23 01:54:04;;;;;;;;;;;;;;;23.01;59.97;99807.53;2064919;28;19913;-65
2021/06/23 01:55:05;;;;;;;;;;;;;;;23.01;60.10;99805.63;2065847;28;19925;-65
2021/06/23 01:56:06;;;;;;;;;;;;;;;23.02;60.16;99812.81;2069524;28;19917;-65
2021/06/23 01:57:09;;;;;;;;;;;;;;;23.02;59.94;99810.06;2070349;28;19921;-65
2021/06/23 01:58:11;;;;;;;;;;;;;;;23.01;60.07;99808.38;2071109;28;20702;-65
2021/06/23 01:59:12;;;;;;;;;;;;;;;23.00;60.03;99809.38;2068891;28;19913;-65
2021/06/23 02:00:13;;;;;;;;;;;;;;;23.02;60.10;99811.97;2074577;28;19944;-65
2021/06/23 02:01:16;;;;;;;;;;;;;;;23.02;60.01;99807.31;2074618;28;19958;-65
2021/06/23 02:02:19;;;;;;;;;;;;;;;23.02;59.97;99807.31;2074793;28;20493;-65
2021/06/23 02:03:55;;;;;;;;;;;;;;;23.02;60.14;99806.47;2071673;28;20344;-65
2021/06/23 02:05:03;;;;;;;;;;;;;;;23.01;59.94;99807.53;2037544;28;19909;-65
2021/06/23 02:06:05;;;;;;;;;;;;;;;23.02;59.89;99807.31;2036567;28;19926;-65
2021/06/23 02:07:12;;;;;;;;;;;;;;;23.01;59.89;99808.38;2046307;28;19922;-65
2021/06/23 02:08:15;;;;;;;;;;;;;;;23.02;60.08;99810.06;2072351;28;19924;-65
2021/06/23 02:09:16;;;;;;;;;;;;;;;23.02;60.00;99810.06;2071860;28;20012;-65
2021/06/23 02:10:39;;;;;;;;;;;;;;;23.00;60.18;99809.38;2070869;28;19916;-65
2021/06/23 02:11:45;;;;;;;;;;;;;;;23.00;60.15;99803.88;2045333;28;19917;-65
2021/06/23 02:12:54;;;;;;;;;;;;;;;23.00;60.04;99805.78;2065891;28;19912;-65
2021/06/23 02:14:01;;;;;;;;;;;;;;;23.01;60.12;99805.63;2067314;28;20362;-65
2021/06/23 02:15:05;;;;;;;;;;;;;;;23.00;60.09;99803.03;2077360;28;19912;-65
2021/06/23 02:16:08;;;;;;;;;;;;;;;22.99;60.15;99802.19;2065400;28;19999;-65
2021/06/23 02:17:10;;;;;;;;;;;;;;;23.00;60.12;99811.28;2071179;28;19914;-65
2021/06/23 02:18:10;;;;;;;;;;;;;;;23.01;59.99;99805.63;2070542;28;19913;-65
2021/06/23 02:19:10;;;;;;;;;;;;;;;23.00;60.08;99803.88;2071420;28;20298;-65
2021/06/23 02:20:11;;;;;;;;;;;;;;;23.00;60.07;99801.16;2071385;28;19909;-65
2021/06/23 02:21:11;;;;;;;;;;;;;;;22.99;60.13;99807.69;2072067;28;19916;-65
2021/06/23 02:22:13;;;;;;;;;;;;;;;22.99;60.11;99802.19;2076259;28;20378;-65
2021/06/23 02:23:14;;;;;;;;;;;;;;;23.00;60.08;99798.41;2071306;28;19921;-65
2021/06/23 02:24:14;;;;;;;;;;;;;;;23.00;60.11;99801.16;2070632;28;19917;-65
2021/06/23 02:25:15;;;;;;;;;;;;;;;23.00;60.14;99797.53;2070833;28;19946;-65
2021/06/23 02:26:15;;;;;;;;;;;;;;;22.99;60.01;99795.84;2067679;28;20557;-65
2021/06/23 02:27:16;;;;;;;;;;;;;;;22.99;60.01;99791.19;2071058;28;20331;-65
2021/06/23 02:28:17;;;;;;;;;;;;;;;22.98;60.17;99797.75;2071303;28;20325;-65
2021/06/23 02:29:18;;;;;;;;;;;;;;;22.99;60.11;99796.69;2070275;28;19919;-65
2021/06/23 02:30:18;;;;;;;;;;;;;;;22.99;60.16;99804.94;2070687;28;19917;-65
2021/06/23 02:31:19;;;;;;;;;;;;;;;23.00;60.07;99798.41;2070914;28;19909;-65
2021/06/23 02:32:22;;;;;;;;;;;;;;;22.98;60.21;99789.50;2071138;28;19909;-65
2021/06/23 02:33:23;;;;;;;;;;;;;;;22.98;60.06;99789.50;2073898;28;19959;-65
2021/06/23 02:34:23;;;;;;;;;;;;;;;22.98;60.12;99789.50;2075676;28;19990;-65
2021/06/23 02:35:25;;;;;;;;;;;;;;;22.98;60.17;99784.00;2069671;28;19909;-65
2021/06/23 02:36:26;;;;;;;;;;;;;;;22.98;60.06;99786.75;2068738;28;19923;-65
2021/06/23 02:37:26;;;;;;;;;;;;;;;22.98;60.12;99789.50;2061574;28;19920;-65
2021/06/23 02:38:26;;;;;;;;;;;;;;;22.99;60.09;99790.34;2068943;28;20844;-65
2021/06/23 02:39:27;;;;;;;;;;;;;;;22.98;60.24;99788.63;2069972;28;19995;-65
2021/06/23 02:40:28;;;;;;;;;;;;;;;22.99;59.97;99785.69;2070697;28;20450;-65
2021/06/23 02:41:28;;;;;;;;;;;;;;;22.99;59.99;99785.69;2073215;28;19912;-65
2021/06/23 02:42:29;;;;;;;;;;;;;;;22.97;60.02;99776.75;2065309;28;20434;-65
2021/06/23 02:43:29;;;;;;;;;;;;;;;22.99;60.00;99773.84;2068433;28;19912;-65
2021/06/23 02:44:30;;;;;;;;;;;;;;;22.98;60.16;99777.63;2070515;28;19917;-65
2021/06/23 02:45:30;;;;;;;;;;;;;;;22.98;60.03;99775.75;2071907;28;19989;-65
2021/06/23 02:46:31;;;;;;;;;;;;;;;22.98;60.14;99772.13;2063410;28;19910;-65
2021/06/23 02:47:31;;;;;;;;;;;;;;;22.97;60.08;99770.41;2062477;28;20343;-65
2021/06/23 02:48:31;;;;;;;;;;;;;;;22.97;60.10;99771.25;2069621;28;19913;-65
2021/06/23 02:49:33;;;;;;;;;;;;;;;22.98;60.11;99767.50;2064543;28;19996;-65
2021/06/23 02:50:39;;;;;;;;;;;;;;;22.98;60.15;99766.63;2071278;28;19908;-65
2021/06/23 02:51:41;;;;;;;;;;;;;;;22.97;60.13;99774.00;2066508;28;19913;-65
2021/06/23 02:52:41;;;;;;;;;;;;;;;22.97;60.07;99767.66;2063432;28;19917;-65
2021/06/23 02:53:42;;;;;;;;;;;;;;;22.97;60.03;99771.25;2067344;28;19920;-65
2021/06/23 02:54:43;;;;;;;;;;;;;;;22.97;60.02;99765.75;2063177;28;19959;-65
2021/06/23 02:55:43;;;;;;;;;;;;;;;22.97;60.16;99771.25;2068025;28;19916;-65
2021/06/23 02:56:44;;;;;;;;;;;;;;;22.97;60.16;99771.25;2067373;28;20467;-65
2021/06/23 02:57:45;;;;;;;;;;;;;;;22.98;60.25;99772.13;2062729;28;20599;-65
2021/06/23 02:58:46;;;;;;;;;;;;;;;22.96;60.17;99775.03;2070239;28;20388;-65
2021/06/23 02:59:47;;;;;;;;;;;;;;;22.96;60.09;99771.44;2070244;28;19901;-65
2021/06/23 03:00:47;;;;;;;;;;;;;;;22.97;60.06;99775.91;2071445;28;19915;-65
2021/06/23 03:01:48;;;;;;;;;;;;;;;22.96;60.09;99769.56;2064871;28;19913;-65
2021/06/23 03:02:48;;;;;;;;;;;;;;;22.97;60.08;99770.41;2062435;28;20427;-65
2021/06/23 03:03:49;;;;;;;;;;;;;;;22.97;60.13;99771.25;2067923;28;20339;-65
2021/06/23 03:04:51;;;;;;;;;;;;;;;22.97;60.10;99767.66;2069277;28;19925;-65
2021/06/23 03:05:51;;;;;;;;;;;;;;;22.97;60.24;99773.16;2069842;28;19913;-65
2021/06/23 03:06:51;;;;;;;;;;;;;;;22.97;60.19;99771.25;2066388;28;20411;-65
2021/06/23 03:07:51;;;;;;;;;;;;;;;22.96;60.02;99766.81;2070224;28;20391;-65
2021/06/23 03:08:52;;;;;;;;;;;;;;;22.96;60.06;99776.94;2068174;28;19905;-65
2021/06/23 03:10:01;;;;;;;;;;;;;;;22.95;60.00;99776.06;2068141;28;19909;-65
2021/06/23 03:11:01;;;;;;;;;;;;;;;22.96;60.15;99772.31;2056230;28;19914;-65
2021/06/23 03:12:02;;;;;;;;;;;;;;;22.97;59.87;99776.75;2067046;28;19956;-65
2021/06/23 03:13:02;;;;;;;;;;;;;;;22.96;60.05;99775.03;2071350;28;21021;-65
2021/06/23 03:14:03;;;;;;;;;;;;;;;22.96;60.06;99775.03;2076961;28;20012;-65
2021/06/23 03:15:04;;;;;;;;;;;;;;;22.96;60.08;99780.53;2079023;28;19947;-65
2021/06/23 03:16:05;;;;;;;;;;;;;;;22.96;60.06;99772.31;2061995;28;19961;-65
2021/06/23 03:17:05;;;;;;;;;;;;;;;22.96;59.94;99780.53;2070058;28;19913;-65
2021/06/23 03:18:06;;;;;;;;;;;;;;;22.97;60.02;99770.41;2071251;28;20450;-64
2021/06/23 03:19:06;;;;;;;;;;;;;;;22.97;60.01;99774.00;2065759;28;20682;-65
2021/06/23 03:20:08;;;;;;;;;;;;;;;22.96;60.06;99775.03;2071016;28;20134;-65
2021/06/23 03:21:09;;;;;;;;;;;;;;;22.96;60.10;99777.78;2062336;28;20004;-65
2021/06/23 03:22:09;;;;;;;;;;;;;;;22.95;60.05;99773.31;2067590;28;19913;-65
2021/06/23 03:23:10;;;;;;;;;;;;;;;22.96;60.11;99765.97;2078968;28;20387;-65
2021/06/23 03:24:10;;;;;;;;;;;;;;;22.95;60.16;99777.97;2070696;28;20558;-65
2021/06/23 03:25:11;;;;;;;;;;;;;;;22.96;60.13;99775.03;2062899;28;19957;-65
2021/06/23 03:26:11;;;;;;;;;;;;;;;22.96;60.21;99777.78;2071672;28;19913;-65
2021/06/23 03:27:11;;;;;;;;;;;;;;;22.96;60.12;99779.69;2069281;28;19905;-65
2021/06/23 03:28:12;;;;;;;;;;;;;;;22.95;60.21;99780.72;2051582;28;19921;-65
2021/06/23 03:29:27;;;;;;;;;;;;;;;22.95;60.13;99781.56;2054277;28;19910;-65
2021/06/23 03:30:28;;;;;;;;;;;;;;;22.95;60.11;99778.81;2071441;28;19913;-65
2021/06/23 03:31:29;;;;;;;;;;;;;;;22.95;60.07;99778.81;2075033;28;19962;-65
2021/06/23 03:32:29;;;;;;;;;;;;;;;22.95;60.05;99778.81;2067584;28;19913;-65
2021/06/23 03:33:29;;;;;;;;;;;;;;;22.96;60.06;99776.94;2065836;28;20013;-65
2021/06/23 03:34:30;;;;;;;;;;;;;;;22.95;60.16;99778.81;2075182;28;19920;-65
2021/06/23 03:35:30;;;;;;;;;;;;;;;22.95;60.17;99784.31;2070151;28;19934;-65
2021/06/23 03:36:30;;;;;;;;;;;;;;;22.95;60.10;99773.31;2065596;28;19939;-65
2021/06/23 03:37:31;;;;;;;;;;;;;;;22.95;60.05;99773.31;2061875;28;19909;-65
2021/06/23 03:38:31;;;;;;;;;;;;;;;22.94;60.13;99779.88;2068136;28;19916;-65
2021/06/23 03:39:31;;;;;;;;;;;;;;;22.95;60.03;99773.31;2068429;28;20018;-65
2021/06/23 03:40:32;;;;;;;;;;;;;;;22.94;60.03;99774.38;2066014;28;19914;-65
2021/06/23 03:41:32;;;;;;;;;;;;;;;22.93;60.03;99780.91;2069622;28;19951;-65
2021/06/23 03:42:32;;;;;;;;;;;;;;;22.93;60.05;99780.91;2069366;28;19924;-65
2021/06/23 03:43:33;;;;;;;;;;;;;;;22.94;60.06;99782.63;2060558;28;20065;-65
2021/06/23 03:44:33;;;;;;;;;;;;;;;22.95;60.13;99784.31;2060810;28;19960;-65
2021/06/23 03:45:34;;;;;;;;;;;;;;;22.95;60.12;99792.56;2066671;28;19905;-65
2021/06/23 03:46:34;;;;;;;;;;;;;;;22.97;60.08;99786.88;2076264;28;19947;-65
2021/06/23 03:47:34;;;;;;;;;;;;;;;22.95;59.97;99795.31;2070249;28;20004;-65
2021/06/23 03:48:34;;;;;;;;;;;;;;;22.94;60.06;99788.13;2063222;28;19909;-65
2021/06/23 03:49:35;;;;;;;;;;;;;;;22.95;60.05;99789.81;2069078;28;20412;-65
2021/06/23 03:50:35;;;;;;;;;;;;;;;22.96;60.00;99790.69;2069706;28;19905;-65
2021/06/23 03:51:36;;;;;;;;;;;;;;;22.95;60.09;99789.81;2077628;28;19924;-65
2021/06/23 03:52:36;;;;;;;;;;;;;;;22.94;59.97;99785.38;2067246;28;19917;-65
2021/06/23 03:53:37;;;;;;;;;;;;;;;22.94;60.34;99790.88;2078507;28;19915;-65
2021/06/23 03:54:37;;;;;;;;;;;;;;;22.94;60.18;99796.34;2072126;28;20793;-65
2021/06/23 03:55:37;;;;;;;;;;;;;;;22.94;60.00;99793.59;2075051;28;19924;-65
2021/06/23 03:56:38;;;;;;;;;;;;;;;22.93;60.17;99797.41;2069702;28;19917;-65
2021/06/23 03:57:38;;;;;;;;;;;;;;;22.94;60.03;99799.09;2064888;28;19963;-65
2021/06/23 03:58:41;;;;;;;;;;;;;;;22.94;60.19;99788.13;2071036;28;19916;-65
2021/06/23 03:59:41;;;;;;;;;;;;;;;22.94;60.10;99799.09;2072963;28;20487;-65
2021/06/23 04:00:42;;;;;;;;;;;;;;;22.94;60.06;99793.59;2076425;28;20563;-65
2021/06/23 04:01:42;;;;;;;;;;;;;;;22.95;60.00;99788.97;2069886;28;19920;-65
2021/06/23 04:02:42;;;;;;;;;;;;;;;22.95;60.08;99791.72;2070022;28;19950;-65
2021/06/23 04:03:43;;;;;;;;;;;;;;;22.94;60.17;99788.13;2071622;28;19909;-65
2021/06/23 04:04:45;;;;;;;;;;;;;;;22.95;60.01;99795.31;2069652;28;20269;-65
2021/06/23 04:05:45;;;;;;;;;;;;;;;22.94;60.08;99793.59;2068347;28;19955;-65
2021/06/23 04:06:46;;;;;;;;;;;;;;;22.94;60.10;99784.50;2070176;28;20376;-65
2021/06/23 04:07:46;;;;;;;;;;;;;;;22.94;60.20;99790.00;2067309;28;19901;-65
2021/06/23 04:08:46;;;;;;;;;;;;;;;22.94;60.20;99785.38;2067932;28;20535;-65
2021/06/23 04:09:47;;;;;;;;;;;;;;;22.94;60.03;99788.13;2073267;28;19913;-65
2021/06/23 04:10:47;;;;;;;;;;;;;;;22.94;60.05;99787.25;2070249;28;19913;-65
2021/06/23 04:11:47;;;;;;;;;;;;;;;22.94;60.24;99790.88;2069409;28;20447;-65
2021/06/23 04:12:48;;;;;;;;;;;;;;;22.94;60.10;99793.59;2070874;28;20516;-65
2021/06/23 04:13:48;;;;;;;;;;;;;;;22.94;60.04;99781.75;2070237;28;19913;-65
2021/06/23 04:14:48;;;;;;;;;;;;;;;22.95;60.17;99789.81;2073781;28;20375;-65
2021/06/23 04:15:49;;;;;;;;;;;;;;;22.94;60.04;99793.59;2071986;28;19916;-65
2021/06/23 04:16:49;;;;;;;;;;;;;;;22.93;60.11;99802.03;2070520;28;19944;-65
2021/06/23 04:17:49;;;;;;;;;;;;;;;22.93;60.19;99799.28;2079049;28;19931;-65
2021/06/23 04:18:50;;;;;;;;;;;;;;;22.93;60.19;99796.53;2072870;28;19971;-65
2021/06/23 04:19:50;;;;;;;;;;;;;;;22.94;60.06;99798.25;2077012;28;20000;-65
2021/06/23 04:20:51;;;;;;;;;;;;;;;22.93;60.18;99802.91;2069616;28;20430;-65
2021/06/23 04:21:51;;;;;;;;;;;;;;;22.92;60.18;99795.69;2056859;28;19909;-65
2021/06/23 04:22:51;;;;;;;;;;;;;;;22.92;60.11;99798.44;2067580;28;20008;-65
2021/06/23 04:23:53;;;;;;;;;;;;;;;22.91;60.06;99799.47;2069839;28;19912;-65
2021/06/23 04:24:53;;;;;;;;;;;;;;;22.92;60.15;99798.44;2070228;28;20445;-65
2021/06/23 04:25:54;;;;;;;;;;;;;;;22.93;60.05;99807.53;2068986;28;19912;-65
2021/06/23 04:26:54;;;;;;;;;;;;;;;22.92;60.20;99795.69;2068467;28;19920;-65
2021/06/23 04:27:54;;;;;;;;;;;;;;;22.91;60.22;99804.97;2065942;28;19944;-65
2021/06/23 04:28:55;;;;;;;;;;;;;;;22.91;60.26;99799.47;2069355;28;19935;-65
2021/06/23 04:29:55;;;;;;;;;;;;;;;22.92;60.14;99806.69;2070074;28;19909;-65
2021/06/23 04:30:56;;;;;;;;;;;;;;;22.92;60.05;99800.31;2071294;28;19917;-65
2021/06/23 04:31:57;;;;;;;;;;;;;;;22.91;60.24;99810.47;2068284;28;19971;-65
2021/06/23 04:32:57;;;;;;;;;;;;;;;22.90;60.17;99804.09;2069928;28;19962;-65
2021/06/23 04:33:57;;;;;;;;;;;;;;;22.90;60.25;99808.75;2070269;28;19963;-65
2021/06/23 04:35:00;;;;;;;;;;;;;;;22.91;60.15;99810.47;2069806;28;21473;-65
2021/06/23 04:36:00;;;;;;;;;;;;;;;22.91;60.20;99810.47;2077221;28;19918;-65
2021/06/23 04:37:00;;;;;;;;;;;;;;;22.90;60.24;99815.09;2068804;28;19910;-65
2021/06/23 04:38:07;;;;;;;;;;;;;;;22.90;60.14;99820.59;2069417;28;19909;-65
2021/06/23 04:39:07;;;;;;;;;;;;;;;22.91;60.00;99810.47;2066357;28;21561;-65
2021/06/23 04:40:10;;;;;;;;;;;;;;;22.90;60.11;99817.84;2072381;28;19914;-65
2021/06/23 04:41:10;;;;;;;;;;;;;;;22.92;60.20;99828.66;2071864;28;20451;-65
2021/06/23 04:42:10;;;;;;;;;;;;;;;22.91;60.12;99818.72;2071747;28;20390;-65
2021/06/23 04:43:11;;;;;;;;;;;;;;;22.90;60.20;99817.84;2066440;28;19960;-65
2021/06/23 04:44:11;;;;;;;;;;;;;;;22.90;60.25;99831.56;2071995;28;20000;-65
2021/06/23 04:45:12;;;;;;;;;;;;;;;22.91;60.12;99826.97;2069149;28;20384;-65
2021/06/23 04:46:13;;;;;;;;;;;;;;;22.91;60.15;99826.97;2073046;28;19913;-65
2021/06/23 04:47:13;;;;;;;;;;;;;;;22.90;60.20;99826.09;2066128;28;19916;-65
2021/06/23 04:48:13;;;;;;;;;;;;;;;22.90;60.20;99826.09;2071618;28;19916;-65
2021/06/23 04:49:14;;;;;;;;;;;;;;;22.89;60.21;99820.78;2068215;28;19917;-65
2021/06/23 04:50:14;;;;;;;;;;;;;;;22.91;60.23;99829.72;2065251;28;20277;-65
2021/06/23 04:51:15;;;;;;;;;;;;;;;22.91;60.16;99832.47;2071747;28;19917;-65
2021/06/23 04:52:16;;;;;;;;;;;;;;;22.90;60.21;99831.56;2071039;28;20080;-65
2021/06/23 04:53:16;;;;;;;;;;;;;;;22.90;60.15;99826.09;2068070;28;19917;-65
2021/06/23 04:54:17;;;;;;;;;;;;;;;22.90;60.04;99825.22;2077503;28;20471;-65
2021/06/23 04:55:17;;;;;;;;;;;;;;;22.89;60.11;99823.53;2075530;28;19905;-65
2021/06/23 04:56:17;;;;;;;;;;;;;;;22.88;60.30;99828.19;2076216;28;19916;-64
2021/06/23 04:57:18;;;;;;;;;;;;;;;22.88;60.13;99821.81;2071099;28;20356;-65
2021/06/23 04:58:18;;;;;;;;;;;;;;;22.88;60.25;99825.44;2070608;28;20777;-65
2021/06/23 04:59:18;;;;;;;;;;;;;;;22.88;60.16;99817.19;2072152;28;20657;-65
2021/06/23 05:00:20;;;;;;;;;;;;;;;22.89;60.24;99812.53;2070376;28;20693;-65
2021/06/23 05:01:20;;;;;;;;;;;;;;;22.87;60.27;99815.47;2069855;28;19913;-65
2021/06/23 05:02:20;;;;;;;;;;;;;;;22.88;60.19;99816.31;2073927;28;20367;-65
2021/06/23 05:03:21;;;;;;;;;;;;;;;22.87;60.11;99823.69;2074114;28;19956;-65
2021/06/23 05:04:21;;;;;;;;;;;;;;;22.87;60.28;99814.63;2079784;28;19916;-65
2021/06/23 05:05:21;;;;;;;;;;;;;;;22.86;60.13;99812.91;2074531;28;19909;-65
2021/06/23 05:06:22;;;;;;;;;;;;;;;22.90;60.09;99830.72;2080456;28;19995;-65
2021/06/23 05:07:22;;;;;;;;;;;;;;;22.90;60.07;99825.22;2078148;28;19909;-65
2021/06/23 05:08:23;;;;;;;;;;;;;;;22.88;60.07;99828.19;2074613;28;19967;-65
2021/06/23 05:09:23;;;;;;;;;;;;;;;22.88;60.22;99828.19;2071070;28;20445;-65
2021/06/23 05:10:23;;;;;;;;;;;;;;;22.88;60.23;99827.31;2073302;28;19923;-65
2021/06/23 05:11:24;;;;;;;;;;;;;;;22.88;60.11;99824.56;2072130;28;19909;-65
2021/06/23 05:12:27;;;;;;;;;;;;;;;22.88;60.26;99828.19;2069826;28;19966;-65
2021/06/23 05:13:28;;;;;;;;;;;;;;;22.88;60.11;99822.69;2068548;28;19914;-65
2021/06/23 05:14:28;;;;;;;;;;;;;;;22.87;60.15;99818.22;2070696;28;19905;-65
2021/06/23 05:15:29;;;;;;;;;;;;;;;22.90;60.24;99827.97;2071384;28;19919;-65
2021/06/23 05:16:30;;;;;;;;;;;;;;;22.88;60.09;99827.31;2071618;28;19955;-65
2021/06/23 05:17:30;;;;;;;;;;;;;;;22.87;60.24;99836.59;2067492;28;19919;-65
2021/06/23 05:18:31;;;;;;;;;;;;;;;22.88;60.11;99827.31;2070870;28;19992;-65
2021/06/23 05:19:32;;;;;;;;;;;;;;;22.87;60.24;99825.59;2075436;28;19909;-65